Terminal Aerodrome Forecast
Issued by NWS

Home | Current Version | Previous Version | Text Only | Print | Product List | Glossary On
Versions: 1 2 3 4 5 6 7 8 9 10 11 12 13 14 15 16 17 18 19 20 21 22 23 24 25 26 27 28 29 30 31 32 33 34 35 36
000
FTUS41 KBOX 120540
TAFHYA
TAF
KHYA 120540Z 1206/1306 00000KT P6SM BKN045 OVC120
     FM120800 14005KT P6SM OVC030
     FM121400 15014G24KT P6SM VCSH OVC025
     FM121700 15015G28KT 4SM -RA OVC020
     FM130000 22010G22KT P6SM BKN020
     FM130500 26010KT P6SM BKN090=

USA.gov is the U.S. government's official web portal to all federal, state and local government web resources and services.